sensor_id;sensor_type;location;lat;lon;timestamp;temperature;humidity
2174;DHT22;1093;51.424;11.764;2023-07-30T00:00:10;16.90;1.40
2174;DHT22;1093;51.424;11.764;2023-07-30T00:02:37;16.90;1.40
2174;DHT22;1093;51.424;11.764;2023-07-30T00:05:06;16.90;1.40
2174;DHT22;1093;51.424;11.764;2023-07-30T00:07:33;16.90;1.40
2174;DHT22;1093;51.424;11.764;2023-07-30T00:10:00;16.90;1.40
2174;DHT22;1093;51.424;11.764;2023-07-30T00:12:27;16.80;1.40
2174;DHT22;1093;51.424;11.764;2023-07-30T00:14:54;16.80;1.40
2174;DHT22;1093;51.424;11.764;2023-07-30T00:17:21;16.90;1.40
2174;DHT22;1093;51.424;11.764;2023-07-30T00:19:48;16.80;1.40
2174;DHT22;1093;51.424;11.764;2023-07-30T00:22:16;16.70;1.40
2174;DHT22;1093;51.424;11.764;2023-07-30T00:24:44;16.80;1.40
2174;DHT22;1093;51.424;11.764;2023-07-30T00:27:10;16.80;1.40
2174;DHT22;1093;51.424;11.764;2023-07-30T00:29:37;16.80;1.40
2174;DHT22;1093;51.424;11.764;2023-07-30T00:32:05;16.80;1.40
2174;DHT22;1093;51.424;11.764;2023-07-30T00:34:32;16.80;1.40
2174;DHT22;1093;51.424;11.764;2023-07-30T00:36:59;16.80;1.40
2174;DHT22;1093;51.424;11.764;2023-07-30T00:39:27;16.70;1.40
2174;DHT22;1093;51.424;11.764;2023-07-30T00:41:54;16.70;1.40
2174;DHT22;1093;51.424;11.764;2023-07-30T00:44:21;16.70;1.40
2174;DHT22;1093;51.424;11.764;2023-07-30T00:46:48;16.70;1.40
2174;DHT22;1093;51.424;11.764;2023-07-30T00:49:15;16.70;1.40
2174;DHT22;1093;51.424;11.764;2023-07-30T00:51:42;16.70;1.40
2174;DHT22;1093;51.424;11.764;2023-07-30T00:54:10;16.70;1.40
2174;DHT22;1093;51.424;11.764;2023-07-30T00:56:45;16.70;1.40
2174;DHT22;1093;51.424;11.764;2023-07-30T00:59:15;16.70;1.40
2174;DHT22;1093;51.424;11.764;2023-07-30T01:01:46;16.70;1.40
2174;DHT22;1093;51.424;11.764;2023-07-30T01:04:14;16.70;1.40
2174;DHT22;1093;51.424;11.764;2023-07-30T01:06:41;16.70;1.40
2174;DHT22;1093;51.424;11.764;2023-07-30T01:09:09;16.60;1.40
2174;DHT22;1093;51.424;11.764;2023-07-30T01:11:37;16.70;1.40
2174;DHT22;1093;51.424;11.764;2023-07-30T01:14:06;16.60;1.40
2174;DHT22;1093;51.424;11.764;2023-07-30T01:16:33;16.60;1.40
2174;DHT22;1093;51.424;11.764;2023-07-30T01:19:00;16.60;1.40
2174;DHT22;1093;51.424;11.764;2023-07-30T01:21:32;16.60;1.40
2174;DHT22;1093;51.424;11.764;2023-07-30T01:23:59;16.60;1.40
2174;DHT22;1093;51.424;11.764;2023-07-30T01:26:32;16.60;1.40
2174;DHT22;1093;51.424;11.764;2023-07-30T01:29:01;16.60;1.40
2174;DHT22;1093;51.424;11.764;2023-07-30T01:31:33;16.60;1.40
2174;DHT22;1093;51.424;11.764;2023-07-30T01:34:02;16.60;1.40
2174;DHT22;1093;51.424;11.764;2023-07-30T01:36:32;16.60;1.40
2174;DHT22;1093;51.424;11.764;2023-07-30T01:39:00;16.60;1.40
2174;DHT22;1093;51.424;11.764;2023-07-30T01:41:27;16.60;1.40
2174;DHT22;1093;51.424;11.764;2023-07-30T01:43:54;16.60;1.40
2174;DHT22;1093;51.424;11.764;2023-07-30T01:46:21;16.60;1.40
2174;DHT22;1093;51.424;11.764;2023-07-30T01:48:48;16.60;1.40
2174;DHT22;1093;51.424;11.764;2023-07-30T01:51:15;16.60;1.40
2174;DHT22;1093;51.424;11.764;2023-07-30T01:53:43;16.60;1.40
2174;DHT22;1093;51.424;11.764;2023-07-30T01:56:10;16.60;1.40
2174;DHT22;1093;51.424;11.764;2023-07-30T01:58:37;16.60;1.40
2174;DHT22;1093;51.424;11.764;2023-07-30T02:01:04;16.50;1.40
2174;DHT22;1093;51.424;11.764;2023-07-30T02:03:30;16.50;1.40
2174;DHT22;1093;51.424;11.764;2023-07-30T02:05:57;16.60;1.40
2174;DHT22;1093;51.424;11.764;2023-07-30T02:08:24;16.60;1.40
2174;DHT22;1093;51.424;11.764;2023-07-30T02:10:56;16.50;1.40
2174;DHT22;1093;51.424;11.764;2023-07-30T02:13:23;16.50;1.40
2174;DHT22;1093;51.424;11.764;2023-07-30T02:15:50;16.50;1.40
2174;DHT22;1093;51.424;11.764;2023-07-30T02:18:17;16.50;1.40
2174;DHT22;1093;51.424;11.764;2023-07-30T02:20:44;16.50;1.40
2174;DHT22;1093;51.424;11.764;2023-07-30T02:23:11;16.50;1.40
2174;DHT22;1093;51.424;11.764;2023-07-30T02:25:38;16.50;1.40
2174;DHT22;1093;51.424;11.764;2023-07-30T02:28:06;16.50;1.40
2174;DHT22;1093;51.424;11.764;2023-07-30T02:30:34;16.50;1.40
2174;DHT22;1093;51.424;11.764;2023-07-30T02:33:01;16.50;1.40
2174;DHT22;1093;51.424;11.764;2023-07-30T02:35:28;16.50;1.40
2174;DHT22;1093;51.424;11.764;2023-07-30T02:37:55;16.60;1.40
2174;DHT22;1093;51.424;11.764;2023-07-30T02:40:23;16.50;1.40
2174;DHT22;1093;51.424;11.764;2023-07-30T02:42:50;16.50;1.40
2174;DHT22;1093;51.424;11.764;2023-07-30T02:45:18;16.50;1.40
2174;DHT22;1093;51.424;11.764;2023-07-30T02:47:45;16.60;1.40
2174;DHT22;1093;51.424;11.764;2023-07-30T02:50:12;16.60;1.40
2174;DHT22;1093;51.424;11.764;2023-07-30T02:52:39;16.60;1.40
2174;DHT22;1093;51.424;11.764;2023-07-30T02:55:06;16.60;1.40
2174;DHT22;1093;51.424;11.764;2023-07-30T02:57:33;16.60;1.40
2174;DHT22;1093;51.424;11.764;2023-07-30T03:00:00;16.60;1.40
2174;DHT22;1093;51.424;11.764;2023-07-30T03:02:28;16.70;1.40
2174;DHT22;1093;51.424;11.764;2023-07-30T03:04:56;16.70;1.40
2174;DHT22;1093;51.424;11.764;2023-07-30T03:07:23;16.70;1.40
2174;DHT22;1093;51.424;11.764;2023-07-30T03:09:50;16.80;1.40
2174;DHT22;1093;51.424;11.764;2023-07-30T03:12:17;16.80;1.40
2174;DHT22;1093;51.424;11.764;2023-07-30T03:14:44;16.70;1.40
2174;DHT22;1093;51.424;11.764;2023-07-30T03:17:11;16.70;1.40
2174;DHT22;1093;51.424;11.764;2023-07-30T03:19:39;16.70;1.40
2174;DHT22;1093;51.424;11.764;2023-07-30T03:22:06;16.70;1.40
2174;DHT22;1093;51.424;11.764;2023-07-30T03:24:33;16.70;1.40
2174;DHT22;1093;51.424;11.764;2023-07-30T03:27:00;16.80;1.40
2174;DHT22;1093;51.424;11.764;2023-07-30T03:29:27;16.80;1.40
2174;DHT22;1093;51.424;11.764;2023-07-30T03:31:54;16.80;1.40
2174;DHT22;1093;51.424;11.764;2023-07-30T03:34:21;16.80;1.40
2174;DHT22;1093;51.424;11.764;2023-07-30T03:36:49;16.80;1.40
2174;DHT22;1093;51.424;11.764;2023-07-30T03:39:16;16.80;1.40
2174;DHT22;1093;51.424;11.764;2023-07-30T03:41:43;16.70;1.40
2174;DHT22;1093;51.424;11.764;2023-07-30T03:44:10;16.70;1.40
2174;DHT22;1093;51.424;11.764;2023-07-30T03:46:36;16.80;1.40
2174;DHT22;1093;51.424;11.764;2023-07-30T03:49:03;16.70;1.40
2174;DHT22;1093;51.424;11.764;2023-07-30T03:51:31;16.70;1.40
2174;DHT22;1093;51.424;11.764;2023-07-30T03:54:00;16.70;1.40
2174;DHT22;1093;51.424;11.764;2023-07-30T03:56:27;16.70;1.40
2174;DHT22;1093;51.424;11.764;2023-07-30T03:58:54;16.80;1.40
2174;DHT22;1093;51.424;11.764;2023-07-30T04:01:21;16.70;1.40
2174;DHT22;1093;51.424;11.764;2023-07-30T04:03:49;16.70;1.40
2174;DHT22;1093;51.424;11.764;2023-07-30T04:06:16;16.70;1.40
2174;DHT22;1093;51.424;11.764;2023-07-30T04:08:43;16.70;1.40
2174;DHT22;1093;51.424;11.764;2023-07-30T04:15:10;16.70;1.40
2174;DHT22;1093;51.424;11.764;2023-07-30T04:17:37;16.70;1.40
2174;DHT22;1093;51.424;11.764;2023-07-30T04:20:05;16.60;1.40
2174;DHT22;1093;51.424;11.764;2023-07-30T04:22:33;16.70;1.40
2174;DHT22;1093;51.424;11.764;2023-07-30T04:24:59;16.60;1.40
2174;DHT22;1093;51.424;11.764;2023-07-30T04:30:35;16.60;1.40
2174;DHT22;1093;51.424;11.764;2023-07-30T04:33:02;16.70;1.40
2174;DHT22;1093;51.424;11.764;2023-07-30T04:35:29;16.60;1.40
2174;DHT22;1093;51.424;11.764;2023-07-30T04:37:56;16.60;1.40
2174;DHT22;1093;51.424;11.764;2023-07-30T04:40:23;16.60;1.40
2174;DHT22;1093;51.424;11.764;2023-07-30T04:42:50;16.70;1.40
2174;DHT22;1093;51.424;11.764;2023-07-30T04:45:17;16.70;1.40
2174;DHT22;1093;51.424;11.764;2023-07-30T04:48:02;16.70;1.40
2174;DHT22;1093;51.424;11.764;2023-07-30T04:50:52;16.70;1.40
2174;DHT22;1093;51.424;11.764;2023-07-30T04:53:24;16.70;1.40
2174;DHT22;1093;51.424;11.764;2023-07-30T04:56:03;16.70;1.40
2174;DHT22;1093;51.424;11.764;2023-07-30T04:58:37;16.80;1.40
2174;DHT22;1093;51.424;11.764;2023-07-30T05:01:23;16.70;1.40
2174;DHT22;1093;51.424;11.764;2023-07-30T05:04:13;16.80;1.40
2174;DHT22;1093;51.424;11.764;2023-07-30T05:06:57;16.80;1.40
2174;DHT22;1093;51.424;11.764;2023-07-30T05:09:29;16.80;1.40
2174;DHT22;1093;51.424;11.764;2023-07-30T05:12:18;16.90;1.40
2174;DHT22;1093;51.424;11.764;2023-07-30T05:15:08;17.00;1.40
2174;DHT22;1093;51.424;11.764;2023-07-30T05:17:51;17.10;1.40
2174;DHT22;1093;51.424;11.764;2023-07-30T05:20:38;17.20;1.40
2174;DHT22;1093;51.424;11.764;2023-07-30T05:23:22;17.40;1.40
2174;DHT22;1093;51.424;11.764;2023-07-30T05:26:14;17.60;1.40
2174;DHT22;1093;51.424;11.764;2023-07-30T05:29:33;17.80;1.40
2174;DHT22;1093;51.424;11.764;2023-07-30T05:32:13;18.00;1.40
2174;DHT22;1093;51.424;11.764;2023-07-30T05:34:52;18.10;1.40
2174;DHT22;1093;51.424;11.764;2023-07-30T05:37:24;18.30;1.40
2174;DHT22;1093;51.424;11.764;2023-07-30T05:39:56;18.40;1.40
2174;DHT22;1093;51.424;11.764;2023-07-30T05:42:39;18.50;1.40
2174;DHT22;1093;51.424;11.764;2023-07-30T05:45:09;18.70;1.40
2174;DHT22;1093;51.424;11.764;2023-07-30T05:47:47;18.80;1.40
2174;DHT22;1093;51.424;11.764;2023-07-30T05:50:32;18.90;1.40
2174;DHT22;1093;51.424;11.764;2023-07-30T05:53:05;19.10;1.40
2174;DHT22;1093;51.424;11.764;2023-07-30T05:55:40;19.20;1.40
2174;DHT22;1093;51.424;11.764;2023-07-30T05:58:13;19.30;1.40
2174;DHT22;1093;51.424;11.764;2023-07-30T06:01:02;19.50;1.40
2174;DHT22;1093;51.424;11.764;2023-07-30T06:03:36;19.60;1.40
2174;DHT22;1093;51.424;11.764;2023-07-30T06:06:25;19.70;1.40
2174;DHT22;1093;51.424;11.764;2023-07-30T06:09:08;19.80;1.40
2174;DHT22;1093;51.424;11.764;2023-07-30T06:11:40;19.90;1.40
2174;DHT22;1093;51.424;11.764;2023-07-30T06:14:18;20.00;1.40
2174;DHT22;1093;51.424;11.764;2023-07-30T06:16:48;20.10;1.40
2174;DHT22;1093;51.424;11.764;2023-07-30T06:19:16;20.20;1.40
2174;DHT22;1093;51.424;11.764;2023-07-30T06:21:46;20.20;1.40
2174;DHT22;1093;51.424;11.764;2023-07-30T06:24:20;20.20;1.40
2174;DHT22;1093;51.424;11.764;2023-07-30T06:26:47;20.30;1.40
2174;DHT22;1093;51.424;11.764;2023-07-30T06:29:16;20.40;1.40
2174;DHT22;1093;51.424;11.764;2023-07-30T06:31:45;20.40;1.40
2174;DHT22;1093;51.424;11.764;2023-07-30T06:34:14;20.40;1.40
2174;DHT22;1093;51.424;11.764;2023-07-30T06:36:42;20.40;1.40
2174;DHT22;1093;51.424;11.764;2023-07-30T06:39:11;20.50;1.40
2174;DHT22;1093;51.424;11.764;2023-07-30T06:41:42;20.50;1.40
2174;DHT22;1093;51.424;11.764;2023-07-30T06:44:11;20.50;1.40
2174;DHT22;1093;51.424;11.764;2023-07-30T06:46:39;20.50;1.40
2174;DHT22;1093;51.424;11.764;2023-07-30T06:49:07;20.60;1.40
2174;DHT22;1093;51.424;11.764;2023-07-30T06:51:37;20.60;1.40
2174;DHT22;1093;51.424;11.764;2023-07-30T06:54:07;20.70;1.40
2174;DHT22;1093;51.424;11.764;2023-07-30T06:56:36;20.70;1.40
2174;DHT22;1093;51.424;11.764;2023-07-30T06:59:06;20.70;1.40
2174;DHT22;1093;51.424;11.764;2023-07-30T07:01:33;20.70;1.40
2174;DHT22;1093;51.424;11.764;2023-07-30T07:04:01;20.80;1.40
2174;DHT22;1093;51.424;11.764;2023-07-30T07:06:30;20.90;1.40
2174;DHT22;1093;51.424;11.764;2023-07-30T07:09:05;20.90;1.40
2174;DHT22;1093;51.424;11.764;2023-07-30T07:11:32;21.00;1.40
2174;DHT22;1093;51.424;11.764;2023-07-30T07:14:06;21.10;1.40
2174;DHT22;1093;51.424;11.764;2023-07-30T07:16:36;21.10;1.40
2174;DHT22;1093;51.424;11.764;2023-07-30T07:19:05;21.20;1.40
2174;DHT22;1093;51.424;11.764;2023-07-30T07:21:36;21.10;1.40
2174;DHT22;1093;51.424;11.764;2023-07-30T07:24:04;21.20;1.40
2174;DHT22;1093;51.424;11.764;2023-07-30T07:26:43;21.20;1.40
2174;DHT22;1093;51.424;11.764;2023-07-30T07:29:18;21.30;1.40
2174;DHT22;1093;51.424;11.764;2023-07-30T07:31:49;21.30;1.40
2174;DHT22;1093;51.424;11.764;2023-07-30T07:34:19;21.40;1.40
2174;DHT22;1093;51.424;11.764;2023-07-30T07:36:58;21.50;1.40
2174;DHT22;1093;51.424;11.764;2023-07-30T07:39:27;21.60;1.40
2174;DHT22;1093;51.424;11.764;2023-07-30T07:42:03;21.60;1.40
2174;DHT22;1093;51.424;11.764;2023-07-30T07:44:49;21.60;1.40
2174;DHT22;1093;51.424;11.764;2023-07-30T07:47:28;21.60;1.40
2174;DHT22;1093;51.424;11.764;2023-07-30T07:49:56;21.70;1.40
2174;DHT22;1093;51.424;11.764;2023-07-30T07:52:29;21.80;1.40
2174;DHT22;1093;51.424;11.764;2023-07-30T07:54:58;21.80;1.40
2174;DHT22;1093;51.424;11.764;2023-07-30T07:57:29;21.80;1.40
2174;DHT22;1093;51.424;11.764;2023-07-30T08:00:03;21.90;1.40
2174;DHT22;1093;51.424;11.764;2023-07-30T08:02:32;22.00;1.40
2174;DHT22;1093;51.424;11.764;2023-07-30T08:05:02;22.00;1.40
2174;DHT22;1093;51.424;11.764;2023-07-30T08:07:34;22.00;1.40
2174;DHT22;1093;51.424;11.764;2023-07-30T08:10:03;22.10;1.40
2174;DHT22;1093;51.424;11.764;2023-07-30T08:12:32;22.20;1.40
2174;DHT22;1093;51.424;11.764;2023-07-30T08:15:22;22.20;1.40
2174;DHT22;1093;51.424;11.764;2023-07-30T08:17:58;22.30;1.40
2174;DHT22;1093;51.424;11.764;2023-07-30T08:23:31;22.30;1.40
2174;DHT22;1093;51.424;11.764;2023-07-30T08:25:59;22.30;1.40
2174;DHT22;1093;51.424;11.764;2023-07-30T08:28:29;22.40;1.40
2174;DHT22;1093;51.424;11.764;2023-07-30T08:31:03;22.60;1.40
2174;DHT22;1093;51.424;11.764;2023-07-30T08:33:33;22.70;1.40
2174;DHT22;1093;51.424;11.764;2023-07-30T08:36:04;22.70;1.40
2174;DHT22;1093;51.424;11.764;2023-07-30T08:38:31;22.90;1.40
2174;DHT22;1093;51.424;11.764;2023-07-30T08:40:59;23.00;1.40
2174;DHT22;1093;51.424;11.764;2023-07-30T08:43:26;23.10;1.40
2174;DHT22;1093;51.424;11.764;2023-07-30T08:45:54;23.20;1.40
2174;DHT22;1093;51.424;11.764;2023-07-30T08:48:25;23.40;1.40
2174;DHT22;1093;51.424;11.764;2023-07-30T08:50:56;23.50;1.40
2174;DHT22;1093;51.424;11.764;2023-07-30T08:56:46;23.70;1.40
2174;DHT22;1093;51.424;11.764;2023-07-30T08:59:15;23.80;1.40
2174;DHT22;1093;51.424;11.764;2023-07-30T09:01:45;24.00;1.40
2174;DHT22;1093;51.424;11.764;2023-07-30T09:04:33;24.10;1.40
2174;DHT22;1093;51.424;11.764;2023-07-30T09:07:08;24.30;1.40
2174;DHT22;1093;51.424;11.764;2023-07-30T09:09:38;24.40;1.40
2174;DHT22;1093;51.424;11.764;2023-07-30T09:12:18;24.60;1.40
2174;DHT22;1093;51.424;11.764;2023-07-30T09:14:51;24.80;1.40
2174;DHT22;1093;51.424;11.764;2023-07-30T09:17:25;25.00;1.40
2174;DHT22;1093;51.424;11.764;2023-07-30T09:23:40;25.40;1.40
2174;DHT22;1093;51.424;11.764;2023-07-30T09:26:10;25.60;1.40
2174;DHT22;1093;51.424;11.764;2023-07-30T09:28:44;25.80;1.40
2174;DHT22;1093;51.424;11.764;2023-07-30T09:31:11;26.00;1.40
2174;DHT22;1093;51.424;11.764;2023-07-30T09:33:50;26.20;1.40
2174;DHT22;1093;51.424;11.764;2023-07-30T09:36:23;26.40;1.40
2174;DHT22;1093;51.424;11.764;2023-07-30T09:42:10;26.70;1.40
2174;DHT22;1093;51.424;11.764;2023-07-30T09:44:39;26.70;1.40
2174;DHT22;1093;51.424;11.764;2023-07-30T09:47:11;26.80;1.40
2174;DHT22;1093;51.424;11.764;2023-07-30T09:49:38;26.80;1.40
2174;DHT22;1093;51.424;11.764;2023-07-30T09:52:08;26.90;1.40
2174;DHT22;1093;51.424;11.764;2023-07-30T09:55:30;26.80;1.40
2174;DHT22;1093;51.424;11.764;2023-07-30T09:58:25;26.80;1.40
2174;DHT22;1093;51.424;11.764;2023-07-30T10:04:20;27.10;1.40
2174;DHT22;1093;51.424;11.764;2023-07-30T10:06:52;27.20;1.40
2174;DHT22;1093;51.424;11.764;2023-07-30T10:09:21;27.30;1.40
2174;DHT22;1093;51.424;11.764;2023-07-30T10:11:50;27.50;1.40
2174;DHT22;1093;51.424;11.764;2023-07-30T10:14:22;27.50;1.40
2174;DHT22;1093;51.424;11.764;2023-07-30T10:16:53;27.50;1.40
2174;DHT22;1093;51.424;11.764;2023-07-30T10:19:26;27.60;1.40
2174;DHT22;1093;51.424;11.764;2023-07-30T10:21:57;27.80;1.40
2174;DHT22;1093;51.424;11.764;2023-07-30T10:24:26;27.80;1.40
2174;DHT22;1093;51.424;11.764;2023-07-30T10:26:53;28.00;1.40
2174;DHT22;1093;51.424;11.764;2023-07-30T10:29:24;27.80;1.40
2174;DHT22;1093;51.424;11.764;2023-07-30T10:31:53;27.80;1.40
2174;DHT22;1093;51.424;11.764;2023-07-30T10:34:21;27.80;1.40
2174;DHT22;1093;51.424;11.764;2023-07-30T10:36:49;27.80;1.40
2174;DHT22;1093;51.424;11.764;2023-07-30T10:39:18;27.70;1.40
2174;DHT22;1093;51.424;11.764;2023-07-30T10:41:45;27.60;1.40
2174;DHT22;1093;51.424;11.764;2023-07-30T10:44:24;27.60;1.40
2174;DHT22;1093;51.424;11.764;2023-07-30T10:49:18;27.60;1.40
2174;DHT22;1093;51.424;11.764;2023-07-30T10:51:45;27.60;1.40
2174;DHT22;1093;51.424;11.764;2023-07-30T10:54:11;27.70;1.40
2174;DHT22;1093;51.424;11.764;2023-07-30T10:56:39;27.70;1.40
2174;DHT22;1093;51.424;11.764;2023-07-30T10:59:07;27.70;1.40
2174;DHT22;1093;51.424;11.764;2023-07-30T11:01:38;27.50;1.40
2174;DHT22;1093;51.424;11.764;2023-07-30T11:04:14;27.50;1.40
2174;DHT22;1093;51.424;11.764;2023-07-30T11:06:45;27.60;1.40
2174;DHT22;1093;51.424;11.764;2023-07-30T11:09:18;27.60;1.40
2174;DHT22;1093;51.424;11.764;2023-07-30T11:11:47;27.70;1.40
2174;DHT22;1093;51.424;11.764;2023-07-30T11:14:15;27.70;1.40
2174;DHT22;1093;51.424;11.764;2023-07-30T11:16:49;27.70;1.40
2174;DHT22;1093;51.424;11.764;2023-07-30T11:19:16;27.70;1.40
2174;DHT22;1093;51.424;11.764;2023-07-30T11:21:47;27.80;1.40
2174;DHT22;1093;51.424;11.764;2023-07-30T11:24:14;27.70;1.40
2174;DHT22;1093;51.424;11.764;2023-07-30T11:26:41;27.70;1.40
2174;DHT22;1093;51.424;11.764;2023-07-30T11:29:15;27.70;1.40
2174;DHT22;1093;51.424;11.764;2023-07-30T11:31:43;27.60;1.40
2174;DHT22;1093;51.424;11.764;2023-07-30T11:34:12;27.60;1.40
2174;DHT22;1093;51.424;11.764;2023-07-30T11:36:39;27.50;1.40
2174;DHT22;1093;51.424;11.764;2023-07-30T11:39:07;27.40;1.40
2174;DHT22;1093;51.424;11.764;2023-07-30T11:41:34;27.30;1.40
2174;DHT22;1093;51.424;11.764;2023-07-30T11:44:01;27.20;1.40
2174;DHT22;1093;51.424;11.764;2023-07-30T11:46:28;27.20;1.40
2174;DHT22;1093;51.424;11.764;2023-07-30T11:49:15;27.20;1.40
2174;DHT22;1093;51.424;11.764;2023-07-30T11:51:42;27.30;1.40
2174;DHT22;1093;51.424;11.764;2023-07-30T11:54:19;27.50;1.40
2174;DHT22;1093;51.424;11.764;2023-07-30T11:56:46;27.50;1.40
2174;DHT22;1093;51.424;11.764;2023-07-30T11:59:13;27.60;1.40
2174;DHT22;1093;51.424;11.764;2023-07-30T12:01:42;27.50;1.40
2174;DHT22;1093;51.424;11.764;2023-07-30T12:04:09;27.50;1.40
2174;DHT22;1093;51.424;11.764;2023-07-30T12:06:41;27.30;1.40
2174;DHT22;1093;51.424;11.764;2023-07-30T12:09:12;27.30;1.40
2174;DHT22;1093;51.424;11.764;2023-07-30T12:11:50;27.20;1.40
2174;DHT22;1093;51.424;11.764;2023-07-30T12:14:18;27.10;1.40
2174;DHT22;1093;51.424;11.764;2023-07-30T12:16:45;27.00;1.40
2174;DHT22;1093;51.424;11.764;2023-07-30T12:19:12;26.70;1.40
2174;DHT22;1093;51.424;11.764;2023-07-30T12:21:41;26.40;1.40
2174;DHT22;1093;51.424;11.764;2023-07-30T12:24:08;26.20;1.40
2174;DHT22;1093;51.424;11.764;2023-07-30T12:26:34;25.80;1.40
2174;DHT22;1093;51.424;11.764;2023-07-30T12:29:01;25.50;1.40
2174;DHT22;1093;51.424;11.764;2023-07-30T12:31:28;25.30;1.40
2174;DHT22;1093;51.424;11.764;2023-07-30T12:33:55;25.00;1.40
2174;DHT22;1093;51.424;11.764;2023-07-30T12:36:22;24.80;1.40
2174;DHT22;1093;51.424;11.764;2023-07-30T12:38:51;24.60;1.40
2174;DHT22;1093;51.424;11.764;2023-07-30T12:41:19;24.40;1.40
2174;DHT22;1093;51.424;11.764;2023-07-30T12:43:51;24.30;1.40
2174;DHT22;1093;51.424;11.764;2023-07-30T12:46:18;24.00;1.40
2174;DHT22;1093;51.424;11.764;2023-07-30T12:48:44;23.80;1.40
2174;DHT22;1093;51.424;11.764;2023-07-30T12:51:11;23.70;1.40
2174;DHT22;1093;51.424;11.764;2023-07-30T12:53:38;23.60;1.40
2174;DHT22;1093;51.424;11.764;2023-07-30T12:56:06;23.50;1.40
2174;DHT22;1093;51.424;11.764;2023-07-30T12:58:33;23.50;1.40
2174;DHT22;1093;51.424;11.764;2023-07-30T13:01:01;23.50;1.40
2174;DHT22;1093;51.424;11.764;2023-07-30T13:03:28;23.60;1.40
2174;DHT22;1093;51.424;11.764;2023-07-30T13:05:55;23.60;1.40
2174;DHT22;1093;51.424;11.764;2023-07-30T13:08:22;23.70;1.40
2174;DHT22;1093;51.424;11.764;2023-07-30T13:10:49;23.80;1.40
2174;DHT22;1093;51.424;11.764;2023-07-30T13:13:17;23.80;1.40
2174;DHT22;1093;51.424;11.764;2023-07-30T13:15:44;23.90;1.40
2174;DHT22;1093;51.424;11.764;2023-07-30T13:18:10;23.90;1.40
2174;DHT22;1093;51.424;11.764;2023-07-30T13:20:37;23.90;1.40
2174;DHT22;1093;51.424;11.764;2023-07-30T13:23:04;24.00;1.40
2174;DHT22;1093;51.424;11.764;2023-07-30T13:25:31;24.00;1.40
2174;DHT22;1093;51.424;11.764;2023-07-30T13:27:58;24.00;1.40
2174;DHT22;1093;51.424;11.764;2023-07-30T13:30:26;24.00;1.40
2174;DHT22;1093;51.424;11.764;2023-07-30T13:32:53;23.90;1.40
2174;DHT22;1093;51.424;11.764;2023-07-30T13:35:20;23.90;1.40
2174;DHT22;1093;51.424;11.764;2023-07-30T13:37:47;23.90;1.40
2174;DHT22;1093;51.424;11.764;2023-07-30T13:40:14;23.90;1.40
2174;DHT22;1093;51.424;11.764;2023-07-30T13:42:41;23.90;1.40
2174;DHT22;1093;51.424;11.764;2023-07-30T13:45:08;24.00;1.40
2174;DHT22;1093;51.424;11.764;2023-07-30T13:47:36;23.90;1.40
2174;DHT22;1093;51.424;11.764;2023-07-30T13:50:04;23.90;1.40
2174;DHT22;1093;51.424;11.764;2023-07-30T13:52:32;23.90;1.40
2174;DHT22;1093;51.424;11.764;2023-07-30T13:54:59;23.80;1.40
2174;DHT22;1093;51.424;11.764;2023-07-30T13:57:29;23.80;1.40
2174;DHT22;1093;51.424;11.764;2023-07-30T13:59:56;23.80;1.40
2174;DHT22;1093;51.424;11.764;2023-07-30T14:02:34;23.80;1.40
2174;DHT22;1093;51.424;11.764;2023-07-30T14:05:03;23.80;1.40
2174;DHT22;1093;51.424;11.764;2023-07-30T14:07:30;23.80;1.40
2174;DHT22;1093;51.424;11.764;2023-07-30T14:09:57;23.80;1.40
2174;DHT22;1093;51.424;11.764;2023-07-30T14:12:24;23.80;1.40
2174;DHT22;1093;51.424;11.764;2023-07-30T14:14:52;23.80;1.40
2174;DHT22;1093;51.424;11.764;2023-07-30T14:17:22;23.70;1.40
2174;DHT22;1093;51.424;11.764;2023-07-30T14:19:49;23.80;1.40
2174;DHT22;1093;51.424;11.764;2023-07-30T14:22:18;23.70;1.40
2174;DHT22;1093;51.424;11.764;2023-07-30T14:24:45;23.60;1.40
2174;DHT22;1093;51.424;11.764;2023-07-30T14:27:12;23.50;1.40
2174;DHT22;1093;51.424;11.764;2023-07-30T14:29:41;23.50;1.40
2174;DHT22;1093;51.424;11.764;2023-07-30T14:32:21;23.40;1.40
2174;DHT22;1093;51.424;11.764;2023-07-30T14:34:48;23.40;1.40
2174;DHT22;1093;51.424;11.764;2023-07-30T14:37:15;23.40;1.40
2174;DHT22;1093;51.424;11.764;2023-07-30T14:39:45;23.40;1.40
2174;DHT22;1093;51.424;11.764;2023-07-30T14:42:15;23.30;1.40
2174;DHT22;1093;51.424;11.764;2023-07-30T14:44:43;23.20;1.40
2174;DHT22;1093;51.424;11.764;2023-07-30T14:47:10;23.10;1.40
2174;DHT22;1093;51.424;11.764;2023-07-30T14:49:38;23.10;1.40
2174;DHT22;1093;51.424;11.764;2023-07-30T14:52:06;23.10;1.40
2174;DHT22;1093;51.424;11.764;2023-07-30T14:54:33;23.00;1.40
2174;DHT22;1093;51.424;11.764;2023-07-30T14:57:01;23.00;1.40
2174;DHT22;1093;51.424;11.764;2023-07-30T14:59:28;22.90;1.40
2174;DHT22;1093;51.424;11.764;2023-07-30T15:01:55;22.80;1.40
2174;DHT22;1093;51.424;11.764;2023-07-30T15:04:22;22.70;1.40
2174;DHT22;1093;51.424;11.764;2023-07-30T15:06:49;22.60;1.40
2174;DHT22;1093;51.424;11.764;2023-07-30T15:09:16;22.60;1.40
2174;DHT22;1093;51.424;11.764;2023-07-30T15:11:43;22.50;1.40
2174;DHT22;1093;51.424;11.764;2023-07-30T15:14:11;22.40;1.40
2174;DHT22;1093;51.424;11.764;2023-07-30T15:16:37;22.40;1.40
2174;DHT22;1093;51.424;11.764;2023-07-30T15:19:04;22.40;1.40
2174;DHT22;1093;51.424;11.764;2023-07-30T15:21:31;22.30;1.40
2174;DHT22;1093;51.424;11.764;2023-07-30T15:24:02;22.30;1.40
2174;DHT22;1093;51.424;11.764;2023-07-30T15:26:29;22.20;1.40
2174;DHT22;1093;51.424;11.764;2023-07-30T15:28:58;22.30;1.40
2174;DHT22;1093;51.424;11.764;2023-07-30T15:31:27;22.10;1.40
2174;DHT22;1093;51.424;11.764;2023-07-30T15:33:54;22.20;1.40
2174;DHT22;1093;51.424;11.764;2023-07-30T15:36:22;22.20;1.40
2174;DHT22;1093;51.424;11.764;2023-07-30T15:38:49;22.20;1.40
2174;DHT22;1093;51.424;11.764;2023-07-30T15:41:19;22.10;1.40
2174;DHT22;1093;51.424;11.764;2023-07-30T15:43:46;22.10;1.40
2174;DHT22;1093;51.424;11.764;2023-07-30T15:46:13;22.20;1.40
2174;DHT22;1093;51.424;11.764;2023-07-30T15:48:41;22.10;1.40
2174;DHT22;1093;51.424;11.764;2023-07-30T15:51:08;22.20;1.40
2174;DHT22;1093;51.424;11.764;2023-07-30T15:53:37;22.20;1.40
2174;DHT22;1093;51.424;11.764;2023-07-30T15:56:04;22.20;1.40
2174;DHT22;1093;51.424;11.764;2023-07-30T15:58:33;22.20;1.40
2174;DHT22;1093;51.424;11.764;2023-07-30T16:01:03;22.30;1.40
2174;DHT22;1093;51.424;11.764;2023-07-30T16:03:30;22.30;1.40
2174;DHT22;1093;51.424;11.764;2023-07-30T16:06:02;22.40;1.40
2174;DHT22;1093;51.424;11.764;2023-07-30T16:08:29;22.40;1.40
2174;DHT22;1093;51.424;11.764;2023-07-30T16:11:06;22.40;1.40
2174;DHT22;1093;51.424;11.764;2023-07-30T16:13:34;22.50;1.40
2174;DHT22;1093;51.424;11.764;2023-07-30T16:16:07;22.50;1.40
2174;DHT22;1093;51.424;11.764;2023-07-30T16:18:34;22.50;1.40
2174;DHT22;1093;51.424;11.764;2023-07-30T16:21:04;22.50;1.40
2174;DHT22;1093;51.424;11.764;2023-07-30T16:23:31;22.60;1.40
2174;DHT22;1093;51.424;11.764;2023-07-30T16:25:58;22.60;1.40
2174;DHT22;1093;51.424;11.764;2023-07-30T16:28:25;22.60;1.40
2174;DHT22;1093;51.424;11.764;2023-07-30T16:30:52;22.60;1.40
2174;DHT22;1093;51.424;11.764;2023-07-30T16:33:20;22.70;1.40
2174;DHT22;1093;51.424;11.764;2023-07-30T16:35:48;22.80;1.40
2174;DHT22;1093;51.424;11.764;2023-07-30T16:38:19;22.90;1.40
2174;DHT22;1093;51.424;11.764;2023-07-30T16:40:46;23.00;1.40
2174;DHT22;1093;51.424;11.764;2023-07-30T16:43:13;23.10;1.40
2174;DHT22;1093;51.424;11.764;2023-07-30T16:45:42;23.10;1.40